createdAt,value
2019-02-19T00:01:16.522Z,6.00
2019-02-19T00:03:48.064Z,5.90
2019-02-19T00:06:18.387Z,5.90
2019-02-19T00:08:48.736Z,5.80
2019-02-19T00:11:19.078Z,5.80
2019-02-19T00:13:49.457Z,5.80
2019-02-19T00:16:19.737Z,5.80
2019-02-19T00:18:50.120Z,5.80
2019-02-19T00:21:20.435Z,5.70
2019-02-19T00:23:50.888Z,5.70
2019-02-19T00:26:21.264Z,5.70
2019-02-19T00:28:52.004Z,5.70
2019-02-19T00:31:22.350Z,5.70
2019-02-19T00:33:54.135Z,5.60
2019-02-19T00:36:24.762Z,5.60
2019-02-19T00:38:55.058Z,5.60
2019-02-19T00:41:25.418Z,5.60
2019-02-19T00:43:55.738Z,5.60
2019-02-19T00:46:26.072Z,5.50
2019-02-19T00:48:56.414Z,5.50
2019-02-19T00:51:26.746Z,5.50
2019-02-19T00:53:57.080Z,5.50
2019-02-19T00:56:27.512Z,5.50
2019-02-19T00:58:57.836Z,5.50
2019-02-19T01:01:28.255Z,5.40
2019-02-19T01:03:58.590Z,5.40
2019-02-19T01:06:29.452Z,5.40
2019-02-19T01:08:59.871Z,5.30
2019-02-19T01:11:30.176Z,5.40
2019-02-19T01:14:00.552Z,5.30
2019-02-19T01:16:30.857Z,5.30
2019-02-19T01:19:01.236Z,5.30
2019-02-19T01:21:31.563Z,5.30
2019-02-19T01:24:01.959Z,5.30
2019-02-19T01:26:33.348Z,5.20
2019-02-19T01:29:03.747Z,5.20
2019-02-19T01:31:34.118Z,5.20
2019-02-19T01:34:04.494Z,5.20
2019-02-19T01:36:35.996Z,5.20
2019-02-19T01:39:06.803Z,5.10
2019-02-19T01:41:37.115Z,5.10
2019-02-19T01:44:07.476Z,5.10
2019-02-19T01:46:37.858Z,5.10
2019-02-19T01:49:08.954Z,5.10
2019-02-19T01:51:39.330Z,5.10
2019-02-19T01:54:09.672Z,5.10
2019-02-19T01:56:40.056Z,5.10
2019-02-19T01:59:10.344Z,5.10
2019-02-19T02:01:40.758Z,5.10
2019-02-19T02:04:11.046Z,5.00
2019-02-19T02:06:41.416Z,5.00
2019-02-19T02:09:11.763Z,5.00
2019-02-19T02:11:42.120Z,5.00
2019-02-19T02:14:12.436Z,5.00
2019-02-19T02:16:42.792Z,5.00
2019-02-19T02:19:13.182Z,5.00
2019-02-19T02:21:43.584Z,4.90
2019-02-19T02:24:14.876Z,4.90
2019-02-19T02:26:46.399Z,4.90
2019-02-19T02:29:16.734Z,4.90
2019-02-19T02:31:47.542Z,4.90
2019-02-19T02:34:17.894Z,4.80
2019-02-19T02:36:49.708Z,4.80
2019-02-19T02:39:20.064Z,4.80
2019-02-19T02:41:50.358Z,4.70
2019-02-19T02:44:20.801Z,4.70
2019-02-19T02:46:51.514Z,4.70
2019-02-19T02:49:21.860Z,4.70
2019-02-19T02:51:52.316Z,4.70
2019-02-19T02:54:22.612Z,4.70
2019-02-19T02:56:52.936Z,4.60
2019-02-19T02:59:23.259Z,4.60
2019-02-19T03:01:53.582Z,4.60
2019-02-19T03:04:23.924Z,4.60
2019-02-19T03:07:06.246Z,4.50
2019-02-19T03:09:36.548Z,4.50
2019-02-19T03:12:06.958Z,4.50
2019-02-19T03:14:37.322Z,4.40
2019-02-19T03:17:07.694Z,4.40
2019-02-19T03:19:38.050Z,4.40
2019-02-19T03:22:08.398Z,4.40
2019-02-19T03:24:38.736Z,4.40
2019-02-19T03:27:09.061Z,4.40
2019-02-19T03:29:39.451Z,4.30
2019-02-19T03:32:10.890Z,4.30
2019-02-19T03:34:41.222Z,4.30
2019-02-19T03:37:12.847Z,4.20
2019-02-19T03:39:43.154Z,4.20
2019-02-19T03:42:13.500Z,4.20
2019-02-19T03:44:43.872Z,4.30
2019-02-19T03:47:14.177Z,4.20
2019-02-19T03:49:44.562Z,4.20
2019-02-19T03:52:15.320Z,4.20
2019-02-19T03:54:46.116Z,4.10
2019-02-19T03:57:16.474Z,4.10
2019-02-19T03:59:46.822Z,4.10
2019-02-19T04:02:17.185Z,4.10
2019-02-19T04:04:47.562Z,4.10
2019-02-19T04:07:17.896Z,4.10
2019-02-19T04:09:48.252Z,4.10
2019-02-19T04:12:18.565Z,4.10
2019-02-19T04:14:49.029Z,4.00
2019-02-19T04:17:19.390Z,4.00
2019-02-19T04:19:49.760Z,4.00
2019-02-19T04:22:20.122Z,4.00
2019-02-19T04:24:50.504Z,4.00
2019-02-19T04:27:20.874Z,4.00
2019-02-19T04:29:51.326Z,3.90
2019-02-19T04:32:21.729Z,3.90
2019-02-19T04:34:52.076Z,3.90
2019-02-19T04:37:23.403Z,3.90
2019-02-19T04:39:54.120Z,3.90
2019-02-19T04:42:24.552Z,3.90
2019-02-19T04:44:55.294Z,3.90
2019-02-19T04:47:25.647Z,3.80
2019-02-19T04:49:56.007Z,3.80
2019-02-19T04:52:26.303Z,3.80
2019-02-19T04:54:57.055Z,3.80
2019-02-19T04:57:27.445Z,3.70
2019-02-19T04:59:57.729Z,3.70
2019-02-19T05:02:28.067Z,3.60
2019-02-19T05:04:58.433Z,3.70
2019-02-19T05:07:30.278Z,3.60
2019-02-19T05:10:00.618Z,3.60
2019-02-19T05:12:30.968Z,3.60
2019-02-19T05:15:02.270Z,3.60
2019-02-19T05:17:33.675Z,3.60
2019-02-19T05:20:04.247Z,3.60
2019-02-19T05:22:34.571Z,3.50
2019-02-19T05:25:05.121Z,3.50
2019-02-19T05:27:35.428Z,3.50
2019-02-19T05:30:06.138Z,3.40
2019-02-19T05:32:36.444Z,3.40
2019-02-19T05:35:07.140Z,3.40
2019-02-19T05:37:37.478Z,3.40
2019-02-19T05:40:07.850Z,3.40
2019-02-19T05:42:38.236Z,3.40
2019-02-19T05:45:08.801Z,3.30
2019-02-19T05:47:39.152Z,3.30
2019-02-19T05:50:09.604Z,3.30
2019-02-19T05:52:40.262Z,3.30
2019-02-19T05:55:10.629Z,3.30
2019-02-19T05:57:40.957Z,3.30
2019-02-19T06:00:11.965Z,3.30
2019-02-19T06:02:42.288Z,3.30
2019-02-19T06:05:12.676Z,3.30
2019-02-19T06:07:43.051Z,3.30
2019-02-19T06:10:13.580Z,3.30
2019-02-19T06:12:43.987Z,3.30
2019-02-19T06:15:14.455Z,3.30
2019-02-19T06:17:44.821Z,3.30
2019-02-19T06:20:15.242Z,3.30
2019-02-19T06:22:45.656Z,3.30
2019-02-19T06:25:15.960Z,3.40
2019-02-19T06:27:46.300Z,3.40
2019-02-19T06:30:16.686Z,3.40
2019-02-19T06:32:47.095Z,3.50
2019-02-19T06:35:17.462Z,3.50
2019-02-19T06:37:48.260Z,3.50
2019-02-19T06:40:29.024Z,3.60
2019-02-19T06:42:59.368Z,3.70
2019-02-19T06:45:29.739Z,3.70
2019-02-19T06:48:00.140Z,3.80
2019-02-19T06:50:30.503Z,3.90
2019-02-19T06:53:00.821Z,3.90
2019-02-19T06:55:31.166Z,4.00
2019-02-19T06:58:01.508Z,4.10
2019-02-19T07:00:31.847Z,4.20
2019-02-19T07:03:21.165Z,4.20
2019-02-19T07:05:51.504Z,4.30
2019-02-19T07:08:21.838Z,4.40
2019-02-19T07:10:52.182Z,4.40
2019-02-19T07:13:22.504Z,4.50
2019-02-19T07:15:52.844Z,4.50
2019-02-19T07:18:24.464Z,4.60
2019-02-19T07:20:54.840Z,4.70
2019-02-19T07:23:25.192Z,4.70
2019-02-19T07:25:55.588Z,4.80
2019-02-19T07:28:25.912Z,4.90
2019-02-19T07:30:56.286Z,5.00
2019-02-19T07:33:26.680Z,5.00
2019-02-19T07:35:57.054Z,5.10
2019-02-19T07:38:29.867Z,5.20
2019-02-19T07:40:59.776Z,5.30
2019-02-19T07:43:30.736Z,5.40
2019-02-19T07:46:01.056Z,5.50
2019-02-19T07:48:31.400Z,5.60
2019-02-19T07:51:01.742Z,5.60
2019-02-19T07:53:32.088Z,5.70
2019-02-19T07:56:02.458Z,5.90
2019-02-19T07:58:32.834Z,5.90
2019-02-19T08:01:04.072Z,6.00
2019-02-19T08:03:34.531Z,6.10
2019-02-19T08:06:04.906Z,6.20
2019-02-19T08:08:35.941Z,6.30
2019-02-19T08:11:07.566Z,6.40
2019-02-19T08:13:37.974Z,6.50
2019-02-19T08:16:08.411Z,6.60
2019-02-19T08:18:39.758Z,6.70
2019-02-19T08:21:10.140Z,6.80
2019-02-19T08:23:40.484Z,6.90
2019-02-19T08:26:10.880Z,7.10
2019-02-19T08:28:41.222Z,7.20
2019-02-19T08:31:11.581Z,7.30
2019-02-19T08:33:41.976Z,7.40
2019-02-19T08:36:12.304Z,7.50
2019-02-19T08:38:43.134Z,7.70
2019-02-19T08:41:13.516Z,7.80
2019-02-19T08:43:43.896Z,7.90
2019-02-19T08:46:14.293Z,8.00
2019-02-19T08:48:44.710Z,8.20
2019-02-19T08:51:15.452Z,9.00
2019-02-19T08:53:45.855Z,10.70
2019-02-19T08:56:16.196Z,12.60
2019-02-19T08:58:46.605Z,14.50
2019-02-19T09:01:16.956Z,16.30
2019-02-19T09:03:47.320Z,17.70
2019-02-19T09:06:17.684Z,19.30
2019-02-19T09:08:48.563Z,20.70
2019-02-19T09:11:18.901Z,21.80
2019-02-19T09:13:49.308Z,23.00
2019-02-19T09:16:19.635Z,24.10
2019-02-19T09:18:51.131Z,25.10
2019-02-19T09:21:21.570Z,25.90
2019-02-19T09:23:51.954Z,26.60
2019-02-19T09:26:22.356Z,27.20
2019-02-19T09:28:52.713Z,27.50
2019-02-19T09:31:23.073Z,27.60
2019-02-19T09:33:53.474Z,28.00
2019-02-19T09:36:23.868Z,28.40
2019-02-19T09:38:55.931Z,29.10
2019-02-19T09:41:26.312Z,29.60
2019-02-19T09:43:56.664Z,29.90
2019-02-19T09:46:27.022Z,30.30
2019-02-19T09:49:19.421Z,30.40
2019-02-19T09:51:49.772Z,30.50
2019-02-19T09:54:20.100Z,30.80
2019-02-19T09:56:50.420Z,31.10
2019-02-19T09:59:20.756Z,31.40
2019-02-19T10:01:51.085Z,30.90
2019-02-19T10:04:21.432Z,30.50
2019-02-19T10:06:52.124Z,30.40
2019-02-19T10:09:23.568Z,30.60
2019-02-19T10:11:53.922Z,30.10
2019-02-19T10:14:24.279Z,30.30
2019-02-19T10:16:54.649Z,30.60
2019-02-19T10:19:26.084Z,30.80
2019-02-19T10:21:56.572Z,30.10
2019-02-19T10:24:26.962Z,29.90
2019-02-19T10:26:57.377Z,30.00
2019-02-19T10:29:28.900Z,30.10
2019-02-19T10:31:59.440Z,30.20
2019-02-19T10:34:29.829Z,30.30
2019-02-19T10:37:00.258Z,29.40
2019-02-19T10:39:31.867Z,28.90
2019-02-19T10:42:02.396Z,28.50
2019-02-19T10:44:32.771Z,28.30
2019-02-19T10:47:03.174Z,28.30
2019-02-19T10:49:33.563Z,28.60
2019-02-19T10:52:03.956Z,28.70
2019-02-19T10:54:34.306Z,28.70
2019-02-19T10:57:04.719Z,28.10
2019-02-19T10:59:35.084Z,28.00
2019-02-19T11:02:05.452Z,27.70
2019-02-19T11:04:35.841Z,27.50
2019-02-19T11:07:06.156Z,26.90
2019-02-19T11:09:37.048Z,26.40
2019-02-19T11:12:07.428Z,26.10
2019-02-19T11:14:37.794Z,26.00
2019-02-19T11:17:08.186Z,25.80
2019-02-19T11:19:38.504Z,25.50
2019-02-19T11:22:08.881Z,24.90
2019-02-19T11:24:40.266Z,24.40
2019-02-19T11:27:11.043Z,24.10
2019-02-19T11:29:41.410Z,24.00
2019-02-19T11:32:11.790Z,23.70
2019-02-19T11:34:42.206Z,23.20
2019-02-19T11:37:12.590Z,22.40
2019-02-19T11:39:43.526Z,21.70
2019-02-19T11:42:13.930Z,21.10
2019-02-19T11:44:44.263Z,20.50
2019-02-19T11:47:14.672Z,19.80
2019-02-19T11:49:45.045Z,19.40
2019-02-19T11:52:15.420Z,19.00
2019-02-19T11:54:57.713Z,18.70
2019-02-19T12:00:34.425Z,17.80
2019-02-19T12:03:05.596Z,17.50
2019-02-19T12:05:35.974Z,17.40
2019-02-19T12:08:06.278Z,17.30
2019-02-19T12:10:37.028Z,17.10
2019-02-19T12:13:07.390Z,16.90
2019-02-19T12:15:37.760Z,16.60
2019-02-19T12:18:08.382Z,16.40
2019-02-19T12:20:38.831Z,16.20
2019-02-19T12:23:09.200Z,16.10
2019-02-19T12:25:40.958Z,15.90
2019-02-19T12:28:11.380Z,15.80
2019-02-19T12:30:41.728Z,15.60
2019-02-19T12:33:12.086Z,15.40
2019-02-19T12:35:42.460Z,15.30
2019-02-19T12:38:12.824Z,15.30
2019-02-19T12:40:43.537Z,15.30
2019-02-19T12:43:13.948Z,15.40
2019-02-19T12:45:44.288Z,15.40
2019-02-19T12:48:14.660Z,15.50
2019-02-19T12:50:45.020Z,15.80
2019-02-19T12:53:15.370Z,16.00
2019-02-19T12:55:45.782Z,16.20
2019-02-19T12:58:16.141Z,16.40
2019-02-19T13:00:46.651Z,16.50
2019-02-19T13:03:17.070Z,16.70
2019-02-19T13:05:47.460Z,16.90
2019-02-19T13:08:17.866Z,16.90
2019-02-19T13:10:49.718Z,17.10
2019-02-19T13:13:20.050Z,17.10
2019-02-19T13:15:50.430Z,17.20
2019-02-19T13:18:21.208Z,17.30
2019-02-19T13:20:51.546Z,17.30
2019-02-19T13:23:22.912Z,17.20
2019-02-19T13:25:53.304Z,17.20
2019-02-19T13:28:23.644Z,17.20
2019-02-19T13:30:54.027Z,17.30
2019-02-19T13:33:24.362Z,17.30
2019-02-19T13:35:54.761Z,17.30
2019-02-19T13:38:25.119Z,17.30
2019-02-19T13:40:56.236Z,17.20
2019-02-19T13:43:26.610Z,17.20
2019-02-19T13:45:56.981Z,17.10
2019-02-19T13:48:27.317Z,17.10
2019-02-19T13:50:57.690Z,17.00
2019-02-19T13:53:34.948Z,17.00
2019-02-19T13:56:05.732Z,16.90
2019-02-19T13:58:36.164Z,16.80
2019-02-19T14:01:06.558Z,16.80
2019-02-19T14:03:36.906Z,16.60
2019-02-19T14:06:07.282Z,16.60
2019-02-19T14:08:37.648Z,16.60
2019-02-19T14:11:08.568Z,16.60
2019-02-19T14:13:41.474Z,16.50
2019-02-19T14:16:21.851Z,16.40
2019-02-19T14:18:56.354Z,16.30
2019-02-19T14:21:44.323Z,16.10
2019-02-19T14:24:42.607Z,15.90
2019-02-19T14:27:40.937Z,15.70
2019-02-19T14:30:34.266Z,15.70
2019-02-19T14:33:24.745Z,15.50
2019-02-19T14:36:17.355Z,15.40
2019-02-19T14:38:58.432Z,15.20
2019-02-19T14:41:49.009Z,15.10
2019-02-19T14:44:38.397Z,15.10
2019-02-19T14:47:30.942Z,15.00
2019-02-19T14:50:32.174Z,14.90
2019-02-19T14:53:27.565Z,14.70
2019-02-19T14:56:32.173Z,14.70
2019-02-19T14:59:19.423Z,14.60
2019-02-19T15:02:07.299Z,14.50
2019-02-19T15:04:55.271Z,14.40
2019-02-19T15:07:34.168Z,14.30
2019-02-19T15:10:33.119Z,14.20
2019-02-19T15:13:22.814Z,14.10
2019-02-19T15:16:24.213Z,14.10
2019-02-19T15:19:06.299Z,14.00
2019-02-19T15:21:55.606Z,13.90
2019-02-19T15:24:43.574Z,13.70
2019-02-19T15:27:41.933Z,13.70
2019-02-19T15:30:34.311Z,13.60
2019-02-19T15:33:30.024Z,13.50
2019-02-19T15:36:28.354Z,13.40
2019-02-19T15:39:33.093Z,13.30
2019-02-19T15:42:25.492Z,13.20
2019-02-19T15:45:14.779Z,13.10
2019-02-19T15:48:04.144Z,13.00
2019-02-19T15:50:52.340Z,13.00
2019-02-19T15:53:39.821Z,12.90
2019-02-19T15:56:34.114Z,12.80
2019-02-19T15:59:41.586Z,12.70
2019-02-19T16:02:34.059Z,12.60
2019-02-19T16:05:35.636Z,12.40
2019-02-19T16:08:16.633Z,12.40
2019-02-19T16:10:57.516Z,12.30
2019-02-19T16:13:38.574Z,12.20
2019-02-19T16:16:26.802Z,12.20
2019-02-19T16:19:14.051Z,12.20
2019-02-19T16:22:00.462Z,12.10
2019-02-19T16:24:48.430Z,12.00
2019-02-19T16:27:40.779Z,11.90
2019-02-19T16:30:33.090Z,11.90
2019-02-19T16:33:34.775Z,11.80
2019-02-19T16:36:11.527Z,11.70
2019-02-19T16:38:59.189Z,11.60
2019-02-19T16:41:51.374Z,11.50
2019-02-19T16:48:01.977Z,11.50
2019-02-19T16:50:46.744Z,11.40
2019-02-19T16:53:25.025Z,11.40
2019-02-19T16:56:08.416Z,11.30
2019-02-19T16:59:05.480Z,11.30
2019-02-19T17:02:01.102Z,11.20
2019-02-19T17:04:53.136Z,11.20
2019-02-19T17:07:30.382Z,11.10
2019-02-19T17:10:24.076Z,11.10
2019-02-19T17:13:05.953Z,11.00
2019-02-19T17:16:13.511Z,11.00
2019-02-19T17:19:03.255Z,10.90
2019-02-19T17:21:45.919Z,10.90
2019-02-19T17:24:29.888Z,10.90
2019-02-19T17:27:38.452Z,10.80
2019-02-19T17:30:31.664Z,10.80
2019-02-19T17:33:24.036Z,10.70
2019-02-19T17:36:19.395Z,10.60
2019-02-19T17:39:09.236Z,10.50
2019-02-19T17:41:44.773Z,10.50
2019-02-19T17:44:20.076Z,10.50
2019-02-19T17:47:14.278Z,10.40
2019-02-19T17:50:12.863Z,10.40
2019-02-19T17:53:08.093Z,10.40
2019-02-19T17:56:06.780Z,10.40
2019-02-19T17:58:57.671Z,10.40
2019-02-19T18:01:39.061Z,10.40
2019-02-19T18:04:28.390Z,10.40
2019-02-19T18:07:23.485Z,10.40
2019-02-19T18:10:18.731Z,10.40
2019-02-19T18:13:00.282Z,10.40
2019-02-19T18:15:57.526Z,10.30
2019-02-19T18:18:33.867Z,10.40
2019-02-19T18:21:05.278Z,10.40
2019-02-19T18:23:35.631Z,10.30
2019-02-19T18:26:06.028Z,10.40
2019-02-19T18:28:36.412Z,10.40
2019-02-19T18:31:06.833Z,10.30
2019-02-19T18:33:37.238Z,10.40
2019-02-19T18:36:07.624Z,10.40
2019-02-19T18:38:37.991Z,10.40
2019-02-19T18:41:08.500Z,10.40
2019-02-19T18:43:38.836Z,10.40
2019-02-19T18:46:09.189Z,10.40
2019-02-19T18:48:39.679Z,10.40
2019-02-19T18:51:10.121Z,10.40
2019-02-19T18:53:40.553Z,10.40
2019-02-19T18:56:10.944Z,10.40
2019-02-19T18:58:41.242Z,10.40
2019-02-19T19:01:12.178Z,10.40
2019-02-19T19:03:43.656Z,10.40
2019-02-19T19:06:13.984Z,10.40
2019-02-19T19:08:44.338Z,10.30
2019-02-19T19:11:14.681Z,10.30
2019-02-19T19:13:45.052Z,10.30
2019-02-19T19:16:15.396Z,10.30
2019-02-19T19:18:45.772Z,10.30
2019-02-19T19:21:16.088Z,10.30
2019-02-19T19:23:46.876Z,10.30
2019-02-19T19:26:18.225Z,10.20
2019-02-19T19:28:48.629Z,10.20
2019-02-19T19:31:19.025Z,10.20
2019-02-19T19:33:49.443Z,10.20
2019-02-19T19:36:19.815Z,10.10
2019-02-19T19:38:50.605Z,10.10
2019-02-19T19:41:20.964Z,10.10
2019-02-19T19:43:51.320Z,10.00
2019-02-19T19:46:21.692Z,10.00
2019-02-19T19:48:52.159Z,10.00
2019-02-19T19:51:23.293Z,9.90
2019-02-19T19:53:53.633Z,9.90
2019-02-19T19:56:24.073Z,9.90
2019-02-19T19:58:54.462Z,9.90
2019-02-19T20:01:25.303Z,9.80
2019-02-19T20:03:55.908Z,9.80
2019-02-19T20:06:26.254Z,9.70
2019-02-19T20:08:56.591Z,9.70
2019-02-19T20:11:26.953Z,9.70
2019-02-19T20:13:57.314Z,9.70
2019-02-19T20:16:27.733Z,9.60
2019-02-19T20:18:58.109Z,9.60
2019-02-19T20:21:29.485Z,9.60
2019-02-19T20:24:00.155Z,9.60
2019-02-19T20:26:30.642Z,9.60
2019-02-19T20:29:02.764Z,9.60
2019-02-19T20:31:33.204Z,9.50
2019-02-19T20:34:06.903Z,9.50
2019-02-19T20:36:37.667Z,9.50
2019-02-19T20:39:08.115Z,9.50
2019-02-19T20:41:40.143Z,9.50
2019-02-19T20:44:10.917Z,9.40
2019-02-19T20:46:41.315Z,9.40
2019-02-19T20:49:11.726Z,9.40
2019-02-19T20:51:43.489Z,9.40
2019-02-19T20:54:13.938Z,9.40
2019-02-19T20:56:44.417Z,9.30
2019-02-19T20:59:14.775Z,9.40
2019-02-19T21:01:45.169Z,9.40
2019-02-19T21:04:15.515Z,9.30
2019-02-19T21:06:46.430Z,9.30
2019-02-19T21:09:17.131Z,9.30
2019-02-19T21:11:47.507Z,9.30
2019-02-19T21:14:17.875Z,9.20
2019-02-19T21:16:48.252Z,9.20
2019-02-19T21:19:18.598Z,9.20
2019-02-19T21:21:49.708Z,9.20
2019-02-19T21:24:20.055Z,9.20
2019-02-19T21:26:50.426Z,9.10
2019-02-19T21:29:22.317Z,9.10
2019-02-19T21:31:52.772Z,9.00
2019-02-19T21:34:23.218Z,9.00
2019-02-19T21:36:53.665Z,9.00
2019-02-19T21:39:24.088Z,9.00
2019-02-19T21:41:54.905Z,8.90
2019-02-19T21:44:25.264Z,8.90
2019-02-19T21:46:56.333Z,8.80
2019-02-19T21:49:26.756Z,8.80
2019-02-19T21:51:58.545Z,8.70
2019-02-19T21:54:28.995Z,8.70
2019-02-19T21:56:59.336Z,8.60
2019-02-19T21:59:29.946Z,8.60
2019-02-19T22:02:00.387Z,8.50
2019-02-19T22:04:32.049Z,8.50
2019-02-19T22:07:02.440Z,8.40
2019-02-19T22:09:32.878Z,8.40
2019-02-19T22:12:03.236Z,8.30
2019-02-19T22:14:33.637Z,8.30
2019-02-19T22:17:04.019Z,8.30
2019-02-19T22:19:34.372Z,8.30
2019-02-19T22:22:12.577Z,8.30
2019-02-19T22:24:43.004Z,8.30
2019-02-19T22:27:13.412Z,8.30
2019-02-19T22:29:43.781Z,8.30
2019-02-19T22:32:16.310Z,8.30
2019-02-19T22:34:47.622Z,8.30
2019-02-19T22:37:18.446Z,8.20
2019-02-19T22:39:48.784Z,8.20
2019-02-19T22:42:19.154Z,8.20
2019-02-19T22:44:49.469Z,8.20
2019-02-19T22:47:19.836Z,8.20
2019-02-19T22:49:50.179Z,8.20
2019-02-19T22:52:21.440Z,8.10
2019-02-19T22:55:04.320Z,8.00
2019-02-19T22:57:34.722Z,8.00
2019-02-19T23:00:08.345Z,8.00
2019-02-19T23:02:40.379Z,8.00
2019-02-19T23:05:10.829Z,8.00
2019-02-19T23:07:41.234Z,8.00
2019-02-19T23:10:11.612Z,8.00
2019-02-19T23:12:42.136Z,8.00
2019-02-19T23:15:12.540Z,8.00
2019-02-19T23:17:43.026Z,8.00
2019-02-19T23:20:13.395Z,8.00
2019-02-19T23:22:44.790Z,8.00
2019-02-19T23:25:15.225Z,8.00
2019-02-19T23:27:45.714Z,8.00
2019-02-19T23:30:17.809Z,8.00
2019-02-19T23:32:48.313Z,8.00
2019-02-19T23:35:26.453Z,8.00
2019-02-19T23:37:57.048Z,8.00
2019-02-19T23:40:27.447Z,8.00
2019-02-19T23:42:59.668Z,8.00
2019-02-19T23:45:30.090Z,8.00
2019-02-19T23:48:00.718Z,8.00
2019-02-19T23:50:31.193Z,8.00
2019-02-19T23:53:05.806Z,8.00
2019-02-19T23:55:36.232Z,7.90
2019-02-19T23:58:06.545Z,7.90
